createdAt,value
2023-04-27T00:01:24.299Z,7.09
2023-04-27T00:03:55.900Z,6.99
2023-04-27T00:06:27.468Z,7.05
2023-04-27T00:08:58.950Z,6.99
2023-04-27T00:11:30.681Z,6.98
2023-04-27T00:14:02.185Z,7.01
2023-04-27T00:16:33.752Z,6.98
2023-04-27T00:19:05.299Z,7.03
2023-04-27T00:21:37.098Z,6.99
2023-04-27T00:24:08.563Z,6.97
2023-04-27T00:26:40.224Z,6.97
2023-04-27T00:29:11.877Z,6.97
2023-04-27T00:31:43.889Z,6.93
2023-04-27T00:34:15.448Z,6.98
2023-04-27T00:36:47.313Z,7.00
2023-04-27T00:39:18.819Z,6.95
2023-04-27T00:41:50.290Z,6.93
2023-04-27T00:44:21.751Z,6.92
2023-04-27T00:46:53.335Z,6.87
2023-04-27T00:49:24.786Z,6.87
2023-04-27T00:51:56.254Z,6.79
2023-04-27T00:54:27.711Z,6.82
2023-04-27T00:56:59.530Z,6.81
2023-04-27T00:59:30.997Z,6.76
2023-04-27T01:02:03.006Z,6.74
2023-04-27T01:04:34.558Z,6.75
2023-04-27T01:07:06.438Z,6.74
2023-04-27T01:09:37.895Z,6.79
2023-04-27T01:12:09.706Z,6.80
2023-04-27T01:14:41.130Z,6.79
2023-04-27T01:17:12.881Z,6.82
2023-04-27T01:19:44.338Z,6.85
2023-04-27T01:22:16.093Z,6.80
2023-04-27T01:24:47.537Z,6.71
2023-04-27T01:27:19.368Z,6.74
2023-04-27T01:29:50.819Z,6.79
2023-04-27T01:32:22.748Z,6.81
2023-04-27T01:34:54.223Z,6.82
2023-04-27T01:37:25.920Z,6.72
2023-04-27T01:39:57.395Z,6.70
2023-04-27T01:42:29.105Z,5.47
2023-04-27T01:45:00.569Z,6.60
2023-04-27T01:47:32.347Z,6.59
2023-04-27T01:50:03.795Z,6.58
2023-04-27T01:52:35.570Z,6.54
2023-04-27T01:55:07.025Z,6.53
2023-04-27T01:57:38.864Z,6.52
2023-04-27T02:00:10.306Z,6.55
2023-04-27T02:02:42.344Z,6.53
2023-04-27T02:05:13.899Z,6.48
2023-04-27T02:07:45.724Z,6.47
2023-04-27T02:10:17.197Z,6.46
2023-04-27T02:12:49.090Z,6.46
2023-04-27T02:15:20.545Z,6.40
2023-04-27T02:17:52.080Z,6.42
2023-04-27T02:20:23.578Z,6.35
2023-04-27T02:22:55.048Z,6.33
2023-04-27T02:25:26.513Z,6.39
2023-04-27T02:27:59.098Z,6.39
2023-04-27T02:30:30.999Z,6.31
2023-04-27T02:33:02.859Z,6.31
2023-04-27T02:35:34.361Z,6.30
2023-04-27T02:38:06.162Z,6.32
2023-04-27T02:40:37.639Z,6.31
2023-04-27T02:43:09.429Z,6.34
2023-04-27T02:45:40.865Z,6.31
2023-04-27T02:48:12.749Z,6.28
2023-04-27T02:50:44.205Z,6.25
2023-04-27T02:53:16.070Z,6.24
2023-04-27T02:55:47.536Z,6.27
2023-04-27T02:58:19.286Z,6.14
2023-04-27T03:00:50.753Z,6.22
2023-04-27T03:03:22.783Z,6.14
2023-04-27T03:05:54.447Z,6.13
2023-04-27T03:08:26.223Z,6.20
2023-04-27T03:10:57.696Z,6.16
2023-04-27T03:13:29.484Z,6.19
2023-04-27T03:16:01.000Z,6.09
2023-04-27T03:18:32.876Z,6.12
2023-04-27T03:21:04.338Z,6.16
2023-04-27T03:23:36.383Z,6.17
2023-04-27T03:26:07.870Z,6.09
2023-04-27T03:28:39.716Z,6.13
2023-04-27T03:31:11.242Z,6.11
2023-04-27T03:33:43.064Z,6.11
2023-04-27T03:36:14.503Z,6.11
2023-04-27T03:38:46.003Z,6.11
2023-04-27T03:41:17.508Z,6.13
2023-04-27T03:43:49.295Z,6.17
2023-04-27T03:46:20.804Z,6.12
2023-04-27T03:48:52.285Z,6.16
2023-04-27T03:51:23.748Z,6.09
2023-04-27T03:53:55.335Z,6.13
2023-04-27T03:56:26.797Z,6.09
2023-04-27T03:58:58.614Z,6.13
2023-04-27T04:01:30.104Z,6.19
2023-04-27T04:04:02.048Z,6.16
2023-04-27T04:06:33.594Z,6.21
2023-04-27T04:09:05.447Z,6.15
2023-04-27T04:11:36.918Z,6.19
2023-04-27T04:14:08.440Z,6.21
2023-04-27T04:16:39.874Z,6.25
2023-04-27T04:19:11.623Z,6.25
2023-04-27T04:21:43.210Z,6.27
2023-04-27T04:24:14.900Z,6.19
2023-04-27T04:26:46.369Z,6.23
2023-04-27T04:29:17.990Z,6.20
2023-04-27T04:31:49.482Z,6.24
2023-04-27T04:34:21.247Z,6.19
2023-04-27T04:36:52.697Z,6.22
2023-04-27T04:39:24.500Z,6.32
2023-04-27T04:41:55.975Z,6.36
2023-04-27T04:44:27.742Z,6.22
2023-04-27T04:46:59.287Z,6.41
2023-04-27T04:49:31.233Z,6.50
2023-04-27T04:52:02.719Z,6.52
2023-04-27T04:54:34.205Z,6.49
2023-04-27T04:57:05.658Z,6.67
2023-04-27T04:59:37.415Z,6.57
2023-04-27T05:02:08.886Z,6.73
2023-04-27T05:04:40.753Z,6.67
2023-04-27T05:07:14.710Z,6.88
2023-04-27T05:09:47.157Z,7.07
2023-04-27T05:12:18.691Z,7.14
2023-04-27T05:14:50.198Z,7.14
2023-04-27T05:17:21.753Z,7.12
2023-04-27T05:19:53.342Z,7.26
2023-04-27T05:22:24.828Z,7.45
2023-04-27T05:24:56.301Z,7.55
2023-04-27T05:27:27.737Z,7.80
2023-04-27T05:29:59.664Z,7.93
2023-04-27T05:32:31.185Z,8.02
2023-04-27T05:35:02.730Z,7.98
2023-04-27T05:37:34.261Z,8.16
2023-04-27T05:40:05.903Z,8.16
2023-04-27T05:42:37.530Z,7.86
2023-04-27T05:45:09.364Z,8.15
2023-04-27T05:47:40.869Z,8.37
2023-04-27T05:50:12.715Z,8.59
2023-04-27T05:52:44.242Z,8.32
2023-04-27T05:55:15.960Z,8.37
2023-04-27T05:57:51.684Z,8.63
2023-04-27T06:00:29.178Z,8.61
2023-04-27T06:03:00.825Z,7.75
2023-04-27T06:05:32.804Z,9.00
2023-04-27T06:08:04.278Z,8.87
2023-04-27T06:10:36.101Z,8.79
2023-04-27T06:13:07.590Z,9.05
2023-04-27T06:15:39.392Z,9.04
2023-04-27T06:18:11.020Z,8.86
2023-04-27T06:20:43.096Z,8.78
2023-04-27T06:23:14.528Z,8.92
2023-04-27T06:25:46.337Z,9.02
2023-04-27T06:28:17.838Z,9.09
2023-04-27T06:30:49.285Z,9.38
2023-04-27T06:33:20.751Z,10.03
2023-04-27T06:35:52.246Z,10.31
2023-04-27T06:38:23.735Z,9.79
2023-04-27T06:40:55.234Z,9.39
2023-04-27T06:43:26.972Z,9.56
2023-04-27T06:45:58.525Z,9.69
2023-04-27T06:48:30.142Z,9.66
2023-04-27T06:51:01.683Z,10.35
2023-04-27T06:53:33.182Z,9.81
2023-04-27T06:56:04.820Z,9.56
2023-04-27T06:58:36.268Z,9.71
2023-04-27T07:01:07.997Z,9.46
2023-04-27T07:03:39.620Z,10.43
2023-04-27T07:06:11.217Z,10.54
2023-04-27T07:08:43.095Z,10.89
2023-04-27T07:11:14.596Z,10.67
2023-04-27T07:13:46.507Z,10.81
2023-04-27T07:16:18.021Z,10.47
2023-04-27T07:18:49.537Z,10.34
2023-04-27T07:21:21.014Z,10.55
2023-04-27T07:23:54.111Z,10.02
2023-04-27T07:26:26.557Z,10.61
2023-04-27T07:28:58.399Z,11.28
2023-04-27T07:31:29.937Z,11.73
2023-04-27T07:34:01.628Z,13.07
2023-04-27T07:36:33.086Z,13.68
2023-04-27T07:39:04.888Z,13.32
2023-04-27T07:41:36.374Z,12.04
2023-04-27T07:44:08.134Z,11.89
2023-04-27T07:46:39.581Z,12.50
2023-04-27T07:49:11.624Z,11.49
2023-04-27T07:51:43.331Z,11.37
2023-04-27T07:54:15.055Z,11.08
2023-04-27T07:56:46.551Z,11.85
2023-04-27T07:59:18.602Z,11.69
2023-04-27T08:01:50.135Z,12.14
2023-04-27T08:04:22.466Z,12.04
2023-04-27T08:06:54.854Z,11.49
2023-04-27T08:09:27.328Z,10.90
2023-04-27T08:11:58.780Z,10.31
2023-04-27T08:14:30.587Z,10.28
2023-04-27T08:17:02.120Z,11.46
2023-04-27T08:19:34.094Z,11.74
2023-04-27T08:22:05.526Z,11.73
2023-04-27T08:24:37.307Z,11.61
2023-04-27T08:27:08.779Z,11.52
2023-04-27T08:29:40.434Z,11.50
2023-04-27T08:32:11.902Z,10.97
2023-04-27T08:34:43.761Z,10.45
2023-04-27T08:37:15.227Z,12.51
2023-04-27T08:39:47.215Z,11.42
2023-04-27T08:42:18.684Z,11.07
2023-04-27T08:44:50.170Z,10.84
2023-04-27T08:47:28.321Z,10.26
2023-04-27T08:50:10.734Z,9.97
2023-04-27T08:52:42.572Z,10.07
2023-04-27T08:55:16.499Z,10.27
2023-04-27T08:57:48.507Z,10.83
2023-04-27T09:00:19.972Z,11.00
2023-04-27T09:02:51.638Z,10.33
2023-04-27T09:05:23.468Z,10.17
2023-04-27T09:07:55.000Z,10.05
2023-04-27T09:10:26.438Z,9.39
2023-04-27T09:12:58.243Z,9.55
2023-04-27T09:15:29.696Z,10.13
2023-04-27T09:18:01.395Z,10.37
2023-04-27T09:20:32.883Z,10.31
2023-04-27T09:23:04.763Z,10.71
2023-04-27T09:25:36.213Z,11.60
2023-04-27T09:28:07.908Z,12.39
2023-04-27T09:30:39.368Z,12.71
2023-04-27T09:33:11.105Z,13.17
2023-04-27T09:35:42.574Z,15.45
2023-04-27T09:38:15.372Z,12.77
2023-04-27T09:40:48.086Z,12.41
2023-04-27T09:43:19.765Z,12.00
2023-04-27T09:45:51.301Z,11.26
2023-04-27T09:48:23.169Z,11.63
2023-04-27T09:50:54.670Z,11.60
2023-04-27T09:53:26.595Z,11.30
2023-04-27T09:55:58.099Z,11.09
2023-04-27T09:58:29.643Z,10.79
2023-04-27T10:01:01.220Z,10.65
2023-04-27T10:03:33.285Z,10.36
2023-04-27T10:06:04.896Z,9.97
2023-04-27T10:08:36.551Z,10.28
2023-04-27T10:11:08.060Z,10.37
2023-04-27T10:13:39.582Z,10.27
2023-04-27T10:16:11.100Z,10.88
2023-04-27T10:18:42.688Z,11.27
2023-04-27T10:21:14.182Z,11.58
2023-04-27T10:23:45.681Z,11.71
2023-04-27T10:26:17.166Z,10.61
2023-04-27T10:28:48.967Z,10.41
2023-04-27T10:31:20.534Z,10.78
2023-04-27T10:33:52.098Z,11.08
2023-04-27T10:36:23.604Z,11.07
2023-04-27T10:38:55.121Z,12.42
2023-04-27T10:41:26.966Z,12.75
2023-04-27T10:43:58.524Z,13.36
2023-04-27T10:46:30.061Z,13.10
2023-04-27T10:49:01.601Z,14.29
2023-04-27T10:51:33.661Z,13.46
2023-04-27T10:54:05.150Z,15.72
2023-04-27T10:56:37.040Z,15.84
2023-04-27T10:59:08.533Z,13.18
2023-04-27T11:01:40.556Z,13.05
2023-04-27T11:04:12.182Z,12.74
2023-04-27T11:06:43.852Z,12.95
2023-04-27T11:09:16.365Z,11.73
2023-04-27T11:11:48.186Z,12.26
2023-04-27T11:14:19.718Z,11.73
2023-04-27T11:16:51.227Z,12.39
2023-04-27T11:19:22.718Z,12.26
2023-04-27T11:21:54.203Z,13.24
2023-04-27T11:24:25.690Z,14.24
2023-04-27T11:26:57.200Z,14.62
2023-04-27T11:29:28.732Z,14.66
2023-04-27T11:32:00.424Z,15.49
2023-04-27T11:34:31.945Z,14.76
2023-04-27T11:37:17.425Z,14.96
2023-04-27T11:39:50.112Z,14.85
2023-04-27T11:42:21.992Z,14.74
2023-04-27T11:44:53.480Z,14.29
2023-04-27T11:47:25.433Z,14.20
2023-04-27T11:49:57.016Z,13.88
2023-04-27T11:52:28.687Z,13.93
2023-04-27T11:55:00.193Z,13.05
2023-04-27T11:57:32.089Z,13.89
2023-04-27T12:00:03.616Z,13.86
2023-04-27T12:02:35.541Z,13.00
2023-04-27T12:05:07.322Z,12.85
2023-04-27T12:07:39.420Z,13.39
2023-04-27T12:10:10.928Z,13.59
2023-04-27T12:12:42.875Z,13.38
2023-04-27T12:15:14.513Z,13.66
2023-04-27T12:17:46.680Z,13.95
2023-04-27T12:20:18.207Z,14.45
2023-04-27T12:22:50.164Z,15.40
2023-04-27T12:25:21.675Z,15.43
2023-04-27T12:27:53.167Z,16.05
2023-04-27T12:30:24.657Z,14.60
2023-04-27T12:32:56.257Z,15.21
2023-04-27T12:35:27.788Z,16.01
2023-04-27T12:37:59.628Z,15.97
2023-04-27T12:40:31.141Z,15.84
2023-04-27T12:43:02.646Z,16.17
2023-04-27T12:45:34.161Z,17.10
2023-04-27T12:48:06.092Z,16.08
2023-04-27T12:50:37.630Z,15.27
2023-04-27T12:53:09.519Z,14.61
2023-04-27T12:55:41.186Z,14.20
2023-04-27T12:58:12.792Z,14.39
2023-04-27T13:00:44.332Z,14.33
2023-04-27T13:03:16.502Z,14.13
2023-04-27T13:05:48.107Z,14.00
2023-04-27T13:08:19.974Z,13.88
2023-04-27T13:10:51.504Z,14.17
2023-04-27T13:13:23.324Z,14.59
2023-04-27T13:15:54.829Z,15.15
2023-04-27T13:18:26.547Z,16.07
2023-04-27T13:20:58.013Z,16.60
2023-04-27T13:23:29.821Z,16.43
2023-04-27T13:26:01.329Z,15.82
2023-04-27T13:28:33.215Z,14.63
2023-04-27T13:31:05.221Z,15.45
2023-04-27T13:33:36.779Z,15.39
2023-04-27T13:36:08.618Z,15.48
2023-04-27T13:38:40.172Z,15.14
2023-04-27T13:41:12.004Z,15.06
2023-04-27T13:43:43.532Z,14.44
2023-04-27T13:46:15.411Z,14.29
2023-04-27T13:48:47.065Z,14.65
2023-04-27T13:51:18.900Z,14.30
2023-04-27T13:53:50.413Z,13.71
2023-04-27T13:56:21.978Z,14.06
2023-04-27T13:58:53.522Z,13.96
2023-04-27T14:01:25.410Z,14.73
2023-04-27T14:03:57.149Z,15.10
2023-04-27T14:06:28.746Z,15.67
2023-04-27T14:09:00.309Z,16.22
2023-04-27T14:11:39.410Z,17.44
2023-04-27T14:14:16.786Z,16.04
2023-04-27T14:16:48.368Z,15.31
2023-04-27T14:19:20.003Z,15.17
2023-04-27T14:21:51.520Z,15.14
2023-04-27T14:24:23.001Z,13.94
2023-04-27T14:26:54.532Z,14.28
2023-04-27T14:29:26.035Z,14.19
2023-04-27T14:31:57.617Z,14.23
2023-04-27T14:34:29.109Z,14.16
2023-04-27T14:37:00.872Z,13.99
2023-04-27T14:39:32.420Z,14.15
2023-04-27T14:42:04.319Z,14.24
2023-04-27T14:44:35.819Z,15.41
2023-04-27T14:47:07.796Z,17.03
2023-04-27T14:49:39.498Z,15.81
2023-04-27T14:52:11.344Z,15.79
2023-04-27T14:54:42.872Z,15.87
2023-04-27T14:57:14.739Z,15.99
2023-04-27T14:59:46.256Z,16.40
2023-04-27T15:02:18.152Z,16.87
2023-04-27T15:04:49.744Z,17.75
2023-04-27T15:07:21.647Z,19.12
2023-04-27T15:09:53.162Z,18.78
2023-04-27T15:12:25.133Z,18.17
2023-04-27T15:14:56.651Z,19.51
2023-04-27T15:17:28.517Z,17.60
2023-04-27T15:20:00.053Z,19.48
2023-04-27T15:22:32.032Z,17.66
2023-04-27T15:25:03.618Z,17.74
2023-04-27T15:27:35.138Z,16.83
2023-04-27T15:30:06.634Z,18.06
2023-04-27T15:32:38.429Z,17.40
2023-04-27T15:35:09.938Z,19.07
2023-04-27T15:37:41.564Z,18.89
2023-04-27T15:40:13.089Z,16.53
2023-04-27T15:42:44.847Z,16.06
2023-04-27T15:45:16.396Z,15.34
2023-04-27T15:47:48.093Z,14.86
2023-04-27T15:50:20.234Z,14.57
2023-04-27T15:52:51.774Z,14.74
2023-04-27T15:55:23.306Z,14.69
2023-04-27T15:57:54.853Z,14.53
2023-04-27T16:00:26.368Z,14.20
2023-04-27T16:02:58.410Z,13.87
2023-04-27T16:05:30.034Z,14.14
2023-04-27T16:08:02.062Z,13.55
2023-04-27T16:10:33.563Z,13.25
2023-04-27T16:13:05.099Z,13.29
2023-04-27T16:15:36.617Z,13.34
2023-04-27T16:18:08.589Z,12.94
2023-04-27T16:20:40.242Z,12.76
2023-04-27T16:23:12.235Z,12.89
2023-04-27T16:25:43.848Z,12.57
2023-04-27T16:28:15.379Z,12.64
2023-04-27T16:30:46.873Z,12.58
2023-04-27T16:33:18.755Z,12.56
2023-04-27T16:35:50.355Z,12.50
2023-04-27T16:38:22.145Z,12.35
2023-04-27T16:40:53.642Z,12.09
2023-04-27T16:43:25.461Z,12.09
2023-04-27T16:45:57.051Z,12.05
2023-04-27T16:48:28.891Z,11.91
2023-04-27T16:51:00.439Z,11.96
2023-04-27T16:53:32.342Z,11.97
2023-04-27T16:56:03.849Z,11.91
2023-04-27T16:58:35.680Z,11.93
2023-04-27T17:01:07.230Z,11.97
2023-04-27T17:03:39.166Z,11.92
2023-04-27T17:06:10.731Z,11.83
2023-04-27T17:08:42.486Z,11.59
2023-04-27T17:11:13.981Z,11.57
2023-04-27T17:13:46.130Z,11.57
2023-04-27T17:16:17.691Z,11.57
2023-04-27T17:18:49.466Z,11.49
2023-04-27T17:21:21.000Z,11.47
2023-04-27T17:23:52.559Z,11.48
2023-04-27T17:26:24.090Z,11.48
2023-04-27T17:28:55.594Z,11.48
2023-04-27T17:31:27.472Z,11.24
2023-04-27T17:33:58.965Z,11.30
2023-04-27T17:36:30.483Z,11.32
2023-04-27T17:39:02.003Z,11.18
2023-04-27T17:41:35.467Z,11.10
2023-04-27T17:44:08.379Z,10.99
2023-04-27T17:46:40.216Z,10.95
2023-04-27T17:49:11.985Z,10.84
2023-04-27T17:51:44.258Z,10.73
2023-04-27T17:54:15.826Z,10.55
2023-04-27T17:56:47.372Z,10.47
2023-04-27T17:59:19.104Z,10.31
2023-04-27T18:01:50.761Z,10.27
2023-04-27T18:04:22.778Z,10.24
2023-04-27T18:06:54.459Z,10.18
2023-04-27T18:09:26.006Z,10.16
2023-04-27T18:11:57.891Z,10.11
2023-04-27T18:14:29.410Z,10.06
2023-04-27T18:17:01.096Z,9.96
2023-04-27T18:19:32.823Z,9.90
2023-04-27T18:22:04.662Z,9.84
2023-04-27T18:24:36.161Z,9.75
2023-04-27T18:27:08.065Z,9.66
2023-04-27T18:29:39.630Z,9.57
2023-04-27T18:32:11.819Z,9.50
2023-04-27T18:34:43.404Z,9.45
2023-04-27T18:37:15.096Z,9.39
2023-04-27T18:39:46.576Z,9.32
2023-04-27T18:42:18.404Z,9.25
2023-04-27T18:44:50.000Z,9.18
2023-04-27T18:47:22.092Z,9.09
2023-04-27T18:49:53.639Z,9.00
2023-04-27T18:52:25.163Z,8.93
2023-04-27T18:54:56.678Z,8.85
2023-04-27T18:57:28.577Z,8.81
2023-04-27T19:00:00.106Z,8.74
2023-04-27T19:02:32.189Z,8.67
2023-04-27T19:05:12.414Z,8.53
2023-04-27T19:07:45.538Z,8.23
2023-04-27T19:10:17.051Z,8.26
2023-04-27T19:12:49.403Z,8.21
2023-04-27T19:15:20.902Z,8.18
2023-04-27T19:17:58.569Z,8.19
2023-04-27T19:20:38.349Z,8.16
2023-04-27T19:23:10.423Z,8.04
2023-04-27T19:25:41.921Z,8.01
2023-04-27T19:28:13.507Z,8.01
2023-04-27T19:30:45.060Z,7.99
2023-04-27T19:33:18.543Z,7.94
2023-04-27T19:35:51.205Z,7.92
2023-04-27T19:38:22.691Z,7.90
2023-04-27T19:40:54.220Z,7.86
2023-04-27T19:43:26.072Z,7.81
2023-04-27T19:45:57.609Z,7.75
2023-04-27T19:48:29.348Z,7.71
2023-04-27T19:51:00.889Z,7.67
2023-04-27T19:53:32.739Z,7.64
2023-04-27T19:56:04.215Z,7.59
2023-04-27T19:58:36.062Z,7.55
2023-04-27T20:01:07.566Z,7.55
2023-04-27T20:03:39.619Z,7.54
2023-04-27T20:06:11.378Z,7.50
2023-04-27T20:08:43.660Z,7.46
2023-04-27T20:11:15.150Z,7.45
2023-04-27T20:13:46.744Z,7.31
2023-04-27T20:16:18.306Z,7.19
2023-04-27T20:18:49.815Z,7.10
2023-04-27T20:21:21.309Z,6.98
2023-04-27T20:23:52.803Z,6.87
2023-04-27T20:26:24.277Z,6.79
2023-04-27T20:28:55.774Z,6.71
2023-04-27T20:31:27.316Z,6.63
2023-04-27T20:33:58.851Z,6.62
2023-04-27T20:36:30.343Z,6.64
2023-04-27T20:39:02.189Z,6.69
2023-04-27T20:41:33.688Z,6.76
2023-04-27T20:44:05.369Z,6.81
2023-04-27T20:46:36.838Z,6.83
2023-04-27T20:49:08.711Z,6.76
2023-04-27T20:51:40.236Z,6.70
2023-04-27T20:54:12.100Z,6.67
2023-04-27T20:56:43.594Z,6.66
2023-04-27T20:59:15.444Z,6.71
2023-04-27T21:01:46.986Z,6.70
2023-04-27T21:04:19.081Z,6.67
2023-04-27T21:06:52.978Z,6.66
2023-04-27T21:09:24.865Z,6.57
2023-04-27T21:11:56.384Z,6.49
2023-04-27T21:14:28.066Z,6.45
2023-04-27T21:16:59.644Z,6.46
2023-04-27T21:19:31.336Z,6.40
2023-04-27T21:22:02.806Z,6.33
2023-04-27T21:24:34.640Z,6.26
2023-04-27T21:27:06.104Z,6.19
2023-04-27T21:29:37.853Z,6.10
2023-04-27T21:32:09.312Z,6.01
2023-04-27T21:34:41.069Z,5.97
2023-04-27T21:37:12.537Z,5.94
2023-04-27T21:39:44.389Z,5.82
2023-04-27T21:42:16.172Z,5.80
2023-04-27T21:44:47.688Z,5.77
2023-04-27T21:47:19.555Z,5.80
2023-04-27T21:49:52.486Z,5.78
2023-04-27T21:52:24.540Z,5.72
2023-04-27T21:54:55.992Z,5.62
2023-04-27T21:57:27.840Z,5.57
2023-04-27T21:59:59.292Z,5.55
2023-04-27T22:02:31.196Z,5.58
2023-04-27T22:05:02.939Z,5.61
2023-04-27T22:07:35.160Z,5.61
2023-04-27T22:10:06.611Z,5.61
2023-04-27T22:12:38.244Z,5.62
2023-04-27T22:15:09.670Z,5.62
2023-04-27T22:17:41.380Z,5.62
2023-04-27T22:20:12.854Z,5.52
2023-04-27T22:22:44.708Z,5.45
2023-04-27T22:25:16.165Z,5.47
2023-04-27T22:27:47.623Z,5.47
2023-04-27T22:30:19.074Z,5.44
2023-04-27T22:32:50.590Z,5.39
2023-04-27T22:35:27.092Z,5.36
2023-04-27T22:37:59.382Z,5.21
2023-04-27T22:40:30.812Z,5.06
2023-04-27T22:43:02.283Z,4.94
2023-04-27T22:45:33.762Z,5.07
2023-04-27T22:48:05.837Z,5.13
2023-04-27T22:50:37.344Z,5.16
2023-04-27T22:53:09.062Z,5.12
2023-04-27T22:55:40.526Z,5.08
2023-04-27T22:58:11.982Z,5.04
2023-04-27T23:00:43.461Z,5.01
2023-04-27T23:03:15.435Z,5.06
2023-04-27T23:05:46.985Z,5.03
2023-04-27T23:08:18.656Z,5.05
2023-04-27T23:10:50.110Z,4.99
2023-04-27T23:13:21.867Z,4.86
2023-04-27T23:15:53.299Z,4.69
2023-04-27T23:18:24.758Z,4.69
2023-04-27T23:20:56.205Z,4.74
2023-04-27T23:23:27.956Z,4.79
2023-04-27T23:25:59.419Z,4.79
2023-04-27T23:28:31.225Z,4.78
2023-04-27T23:31:02.709Z,4.78
2023-04-27T23:36:30.484Z,4.64
2023-04-27T23:39:02.245Z,4.60
2023-04-27T23:41:33.948Z,4.59
2023-04-27T23:44:05.397Z,4.55
2023-04-27T23:46:37.262Z,4.43
2023-04-27T23:49:08.741Z,4.21
2023-04-27T23:51:40.653Z,4.18
2023-04-27T23:54:12.120Z,4.19
2023-04-27T23:56:43.947Z,4.19
2023-04-27T23:59:15.432Z,4.25
